sensor_id;sensor_type;location;lat;lon;timestamp;temperature;humidity
39983;DHT22;25670;44.782;10.356;2022-08-03T00:00:57;22.70;99.90
39983;DHT22;25670;44.782;10.356;2022-08-03T00:03:23;23.10;99.90
39983;DHT22;25670;44.782;10.356;2022-08-03T00:05:49;23.00;99.90
39983;DHT22;25670;44.782;10.356;2022-08-03T00:08:16;23.10;99.90
39983;DHT22;25670;44.782;10.356;2022-08-03T00:10:42;22.90;99.90
39983;DHT22;25670;44.782;10.356;2022-08-03T00:13:09;22.90;99.90
39983;DHT22;25670;44.782;10.356;2022-08-03T00:15:41;23.10;99.90
39983;DHT22;25670;44.782;10.356;2022-08-03T00:18:08;23.00;99.90
39983;DHT22;25670;44.782;10.356;2022-08-03T00:20:34;22.90;99.90
39983;DHT22;25670;44.782;10.356;2022-08-03T00:23:01;22.50;99.90
39983;DHT22;25670;44.782;10.356;2022-08-03T00:25:27;23.00;99.90
39983;DHT22;25670;44.782;10.356;2022-08-03T00:32:46;22.90;99.90
39983;DHT22;25670;44.782;10.356;2022-08-03T00:35:13;23.00;99.90
39983;DHT22;25670;44.782;10.356;2022-08-03T00:40:15;21.70;99.90
39983;DHT22;25670;44.782;10.356;2022-08-03T00:45:38;22.80;99.90
39983;DHT22;25670;44.782;10.356;2022-08-03T00:48:06;22.80;99.90
39983;DHT22;25670;44.782;10.356;2022-08-03T00:50:42;23.10;99.90
39983;DHT22;25670;44.782;10.356;2022-08-03T00:53:10;22.80;99.90
39983;DHT22;25670;44.782;10.356;2022-08-03T00:55:40;22.80;99.90
39983;DHT22;25670;44.782;10.356;2022-08-03T00:58:07;22.70;99.90
39983;DHT22;25670;44.782;10.356;2022-08-03T01:00:37;22.60;99.90
39983;DHT22;25670;44.782;10.356;2022-08-03T01:03:08;22.60;99.90
39983;DHT22;25670;44.782;10.356;2022-08-03T01:08:38;22.80;99.90
39983;DHT22;25670;44.782;10.356;2022-08-03T01:14:02;22.70;99.90
39983;DHT22;25670;44.782;10.356;2022-08-03T01:16:36;22.60;99.90
39983;DHT22;25670;44.782;10.356;2022-08-03T01:20:08;22.70;99.90
39983;DHT22;25670;44.782;10.356;2022-08-03T01:22:36;22.70;99.90
39983;DHT22;25670;44.782;10.356;2022-08-03T01:30:44;22.50;99.90
39983;DHT22;25670;44.782;10.356;2022-08-03T01:33:25;22.30;99.90
39983;DHT22;25670;44.782;10.356;2022-08-03T01:36:02;21.80;99.90
39983;DHT22;25670;44.782;10.356;2022-08-03T01:38:35;22.70;99.90
39983;DHT22;25670;44.782;10.356;2022-08-03T01:41:06;22.10;99.90
39983;DHT22;25670;44.782;10.356;2022-08-03T01:43:34;22.10;99.90
39983;DHT22;25670;44.782;10.356;2022-08-03T01:46:03;20.80;99.90
39983;DHT22;25670;44.782;10.356;2022-08-03T01:48:32;22.00;99.90
39983;DHT22;25670;44.782;10.356;2022-08-03T01:53:27;22.00;99.90
39983;DHT22;25670;44.782;10.356;2022-08-03T01:55:56;21.90;99.90
39983;DHT22;25670;44.782;10.356;2022-08-03T02:00:51;21.80;99.90
39983;DHT22;25670;44.782;10.356;2022-08-03T02:03:19;22.00;99.90
39983;DHT22;25670;44.782;10.356;2022-08-03T02:05:47;22.00;99.90
39983;DHT22;25670;44.782;10.356;2022-08-03T02:08:15;22.00;99.90
39983;DHT22;25670;44.782;10.356;2022-08-03T02:10:43;21.90;99.90
39983;DHT22;25670;44.782;10.356;2022-08-03T02:13:11;22.00;99.90
39983;DHT22;25670;44.782;10.356;2022-08-03T02:18:08;22.00;99.90
39983;DHT22;25670;44.782;10.356;2022-08-03T02:20:36;22.40;99.90
39983;DHT22;25670;44.782;10.356;2022-08-03T02:23:04;21.80;99.90
39983;DHT22;25670;44.782;10.356;2022-08-03T02:25:33;21.90;99.90
39983;DHT22;25670;44.782;10.356;2022-08-03T02:28:20;21.90;99.90
39983;DHT22;25670;44.782;10.356;2022-08-03T02:30:54;21.80;99.90
39983;DHT22;25670;44.782;10.356;2022-08-03T02:33:27;21.80;99.90
39983;DHT22;25670;44.782;10.356;2022-08-03T02:36:11;21.80;99.90
39983;DHT22;25670;44.782;10.356;2022-08-03T02:38:52;21.80;99.90
39983;DHT22;25670;44.782;10.356;2022-08-03T02:41:22;21.70;99.90
39983;DHT22;25670;44.782;10.356;2022-08-03T02:43:52;21.70;99.90
39983;DHT22;25670;44.782;10.356;2022-08-03T02:46:23;21.60;99.90
39983;DHT22;25670;44.782;10.356;2022-08-03T02:48:54;21.60;99.90
39983;DHT22;25670;44.782;10.356;2022-08-03T02:51:22;21.60;99.90
39983;DHT22;25670;44.782;10.356;2022-08-03T02:53:55;21.70;99.90
39983;DHT22;25670;44.782;10.356;2022-08-03T02:56:24;21.60;99.90
39983;DHT22;25670;44.782;10.356;2022-08-03T02:58:50;21.70;99.90
39983;DHT22;25670;44.782;10.356;2022-08-03T03:01:26;21.70;99.90
39983;DHT22;25670;44.782;10.356;2022-08-03T03:03:55;21.60;99.90
39983;DHT22;25670;44.782;10.356;2022-08-03T03:06:24;21.50;99.90
39983;DHT22;25670;44.782;10.356;2022-08-03T03:08:52;21.60;99.90
39983;DHT22;25670;44.782;10.356;2022-08-03T03:11:21;18.60;99.90
39983;DHT22;25670;44.782;10.356;2022-08-03T03:18:44;20.80;99.90
39983;DHT22;25670;44.782;10.356;2022-08-03T03:21:11;21.40;99.90
39983;DHT22;25670;44.782;10.356;2022-08-03T03:23:39;21.30;99.90
39983;DHT22;25670;44.782;10.356;2022-08-03T03:26:07;21.30;99.90
39983;DHT22;25670;44.782;10.356;2022-08-03T03:28:34;21.20;99.90
39983;DHT22;25670;44.782;10.356;2022-08-03T03:31:06;21.30;99.90
39983;DHT22;25670;44.782;10.356;2022-08-03T03:33:34;21.30;99.90
39983;DHT22;25670;44.782;10.356;2022-08-03T03:43:22;21.20;99.90
39983;DHT22;25670;44.782;10.356;2022-08-03T03:53:11;21.10;99.90
39983;DHT22;25670;44.782;10.356;2022-08-03T03:55:38;21.30;99.90
39983;DHT22;25670;44.782;10.356;2022-08-03T04:00:33;21.20;99.90
39983;DHT22;25670;44.782;10.356;2022-08-03T04:03:02;21.30;99.90
39983;DHT22;25670;44.782;10.356;2022-08-03T04:08:16;21.30;99.90
39983;DHT22;25670;44.782;10.356;2022-08-03T04:13:40;21.40;99.90
39983;DHT22;25670;44.782;10.356;2022-08-03T04:16:09;21.50;99.90
39983;DHT22;25670;44.782;10.356;2022-08-03T04:18:38;21.50;99.90
39983;DHT22;25670;44.782;10.356;2022-08-03T04:21:09;21.50;99.90
39983;DHT22;25670;44.782;10.356;2022-08-03T04:23:39;21.40;99.90
39983;DHT22;25670;44.782;10.356;2022-08-03T04:26:11;21.40;99.90
39983;DHT22;25670;44.782;10.356;2022-08-03T04:28:40;21.50;99.90
39983;DHT22;25670;44.782;10.356;2022-08-03T04:31:08;21.50;99.90
39983;DHT22;25670;44.782;10.356;2022-08-03T04:33:36;21.50;99.90
39983;DHT22;25670;44.782;10.356;2022-08-03T04:36:06;21.60;99.90
39983;DHT22;25670;44.782;10.356;2022-08-03T04:38:43;21.70;99.90
39983;DHT22;25670;44.782;10.356;2022-08-03T04:41:14;21.60;99.90
39983;DHT22;25670;44.782;10.356;2022-08-03T04:43:44;21.70;99.90
39983;DHT22;25670;44.782;10.356;2022-08-03T04:51:04;22.00;99.90
39983;DHT22;25670;44.782;10.356;2022-08-03T04:56:04;22.20;99.90
39983;DHT22;25670;44.782;10.356;2022-08-03T05:03:24;22.20;99.90
39983;DHT22;25670;44.782;10.356;2022-08-03T05:05:52;21.90;99.90
39983;DHT22;25670;44.782;10.356;2022-08-03T05:08:18;22.30;99.90
39983;DHT22;25670;44.782;10.356;2022-08-03T05:10:45;22.30;99.90
39983;DHT22;25670;44.782;10.356;2022-08-03T05:13:12;22.30;99.90
39983;DHT22;25670;44.782;10.356;2022-08-03T05:18:06;22.50;99.90
39983;DHT22;25670;44.782;10.356;2022-08-03T05:22:59;22.80;99.90
39983;DHT22;25670;44.782;10.356;2022-08-03T05:25:29;22.80;99.90
39983;DHT22;25670;44.782;10.356;2022-08-03T05:27:58;23.00;99.90
39983;DHT22;25670;44.782;10.356;2022-08-03T05:30:24;23.20;99.90
39983;DHT22;25670;44.782;10.356;2022-08-03T05:35:18;23.60;99.90
39983;DHT22;25670;44.782;10.356;2022-08-03T05:40:11;22.70;99.90
39983;DHT22;25670;44.782;10.356;2022-08-03T05:42:38;23.10;99.90
39983;DHT22;25670;44.782;10.356;2022-08-03T05:45:04;23.60;99.90
39983;DHT22;25670;44.782;10.356;2022-08-03T05:47:44;23.90;99.90
39983;DHT22;25670;44.782;10.356;2022-08-03T05:50:12;23.50;99.90
39983;DHT22;25670;44.782;10.356;2022-08-03T05:52:39;23.60;99.90
39983;DHT22;25670;44.782;10.356;2022-08-03T05:55:06;23.90;99.90
39983;DHT22;25670;44.782;10.356;2022-08-03T05:57:33;23.90;99.90
39983;DHT22;25670;44.782;10.356;2022-08-03T06:02:26;23.90;99.90
39983;DHT22;25670;44.782;10.356;2022-08-03T06:04:53;23.90;99.90
39983;DHT22;25670;44.782;10.356;2022-08-03T06:09:45;23.90;99.90
39983;DHT22;25670;44.782;10.356;2022-08-03T06:12:12;24.30;99.90
39983;DHT22;25670;44.782;10.356;2022-08-03T06:17:04;24.10;99.90
39983;DHT22;25670;44.782;10.356;2022-08-03T06:19:31;24.60;99.90
39983;DHT22;25670;44.782;10.356;2022-08-03T06:21:58;24.60;99.90
39983;DHT22;25670;44.782;10.356;2022-08-03T06:24:24;24.70;99.90
39983;DHT22;25670;44.782;10.356;2022-08-03T06:31:43;24.90;99.90
39983;DHT22;25670;44.782;10.356;2022-08-03T06:34:09;24.10;99.90
39983;DHT22;25670;44.782;10.356;2022-08-03T06:36:36;25.50;99.90
39983;DHT22;25670;44.782;10.356;2022-08-03T06:39:03;25.20;99.90
39983;DHT22;25670;44.782;10.356;2022-08-03T06:41:29;25.50;99.90
39983;DHT22;25670;44.782;10.356;2022-08-03T06:46:22;25.30;99.90
39983;DHT22;25670;44.782;10.356;2022-08-03T06:48:48;25.60;99.90
39983;DHT22;25670;44.782;10.356;2022-08-03T06:51:15;25.60;99.90
39983;DHT22;25670;44.782;10.356;2022-08-03T06:53:41;25.60;99.90
39983;DHT22;25670;44.782;10.356;2022-08-03T06:56:08;25.80;99.90
39983;DHT22;25670;44.782;10.356;2022-08-03T06:58:34;25.90;99.90
39983;DHT22;25670;44.782;10.356;2022-08-03T07:01:00;26.10;99.90
39983;DHT22;25670;44.782;10.356;2022-08-03T07:03:27;26.10;99.90
39983;DHT22;25670;44.782;10.356;2022-08-03T07:05:56;26.20;99.90
39983;DHT22;25670;44.782;10.356;2022-08-03T07:08:22;26.00;99.90
39983;DHT22;25670;44.782;10.356;2022-08-03T07:10:49;26.60;99.90
39983;DHT22;25670;44.782;10.356;2022-08-03T07:13:15;26.60;99.90
39983;DHT22;25670;44.782;10.356;2022-08-03T07:15:41;26.40;99.90
39983;DHT22;25670;44.782;10.356;2022-08-03T07:18:08;26.60;99.90
39983;DHT22;25670;44.782;10.356;2022-08-03T07:20:35;26.50;99.90
39983;DHT22;25670;44.782;10.356;2022-08-03T07:23:02;27.00;99.90
39983;DHT22;25670;44.782;10.356;2022-08-03T07:25:28;26.70;99.90
39983;DHT22;25670;44.782;10.356;2022-08-03T07:27:54;26.90;99.90
39983;DHT22;25670;44.782;10.356;2022-08-03T07:30:20;27.30;99.90
39983;DHT22;25670;44.782;10.356;2022-08-03T07:32:47;27.10;99.90
39983;DHT22;25670;44.782;10.356;2022-08-03T07:35:13;27.00;99.90
39983;DHT22;25670;44.782;10.356;2022-08-03T07:37:39;27.00;99.90
39983;DHT22;25670;44.782;10.356;2022-08-03T07:40:06;27.00;99.90
39983;DHT22;25670;44.782;10.356;2022-08-03T07:42:32;27.00;99.90
39983;DHT22;25670;44.782;10.356;2022-08-03T07:44:59;27.00;99.90
39983;DHT22;25670;44.782;10.356;2022-08-03T07:47:27;27.00;99.90
39983;DHT22;25670;44.782;10.356;2022-08-03T07:49:54;27.10;99.90
39983;DHT22;25670;44.782;10.356;2022-08-03T07:52:20;26.90;99.90
39983;DHT22;25670;44.782;10.356;2022-08-03T07:55:06;27.40;99.90
39983;DHT22;25670;44.782;10.356;2022-08-03T07:57:33;27.40;99.90
39983;DHT22;25670;44.782;10.356;2022-08-03T08:00:00;27.40;99.90
39983;DHT22;25670;44.782;10.356;2022-08-03T08:02:26;27.40;99.90
39983;DHT22;25670;44.782;10.356;2022-08-03T08:04:53;27.40;99.90
39983;DHT22;25670;44.782;10.356;2022-08-03T08:07:19;27.40;99.90
39983;DHT22;25670;44.782;10.356;2022-08-03T08:09:45;27.40;99.90
39983;DHT22;25670;44.782;10.356;2022-08-03T08:12:11;27.40;99.90
39983;DHT22;25670;44.782;10.356;2022-08-03T08:14:38;27.40;99.90
39983;DHT22;25670;44.782;10.356;2022-08-03T08:17:04;27.60;99.90
39983;DHT22;25670;44.782;10.356;2022-08-03T08:19:30;27.60;99.90
39983;DHT22;25670;44.782;10.356;2022-08-03T08:21:56;27.30;99.90
39983;DHT22;25670;44.782;10.356;2022-08-03T08:24:23;27.70;99.90
39983;DHT22;25670;44.782;10.356;2022-08-03T08:26:49;27.70;99.90
39983;DHT22;25670;44.782;10.356;2022-08-03T08:29:15;27.80;99.90
39983;DHT22;25670;44.782;10.356;2022-08-03T08:31:41;28.00;99.90
39983;DHT22;25670;44.782;10.356;2022-08-03T08:34:08;28.10;99.90
39983;DHT22;25670;44.782;10.356;2022-08-03T08:36:34;28.10;99.90
39983;DHT22;25670;44.782;10.356;2022-08-03T08:39:01;28.10;99.90
39983;DHT22;25670;44.782;10.356;2022-08-03T08:41:27;28.70;99.90
39983;DHT22;25670;44.782;10.356;2022-08-03T08:43:54;28.40;99.90
39983;DHT22;25670;44.782;10.356;2022-08-03T08:46:20;28.40;99.90
39983;DHT22;25670;44.782;10.356;2022-08-03T08:48:48;28.60;99.90
39983;DHT22;25670;44.782;10.356;2022-08-03T08:51:16;28.60;99.90
39983;DHT22;25670;44.782;10.356;2022-08-03T08:53:48;28.70;99.90
39983;DHT22;25670;44.782;10.356;2022-08-03T08:56:17;28.80;99.90
39983;DHT22;25670;44.782;10.356;2022-08-03T08:58:51;28.90;99.90
39983;DHT22;25670;44.782;10.356;2022-08-03T09:01:18;28.90;99.90
39983;DHT22;25670;44.782;10.356;2022-08-03T09:03:46;29.00;99.90
39983;DHT22;25670;44.782;10.356;2022-08-03T09:06:12;29.00;99.90
39983;DHT22;25670;44.782;10.356;2022-08-03T09:08:40;29.10;99.90
39983;DHT22;25670;44.782;10.356;2022-08-03T09:11:06;29.10;99.90
39983;DHT22;25670;44.782;10.356;2022-08-03T09:13:33;29.10;99.90
39983;DHT22;25670;44.782;10.356;2022-08-03T09:16:18;29.30;99.90
39983;DHT22;25670;44.782;10.356;2022-08-03T09:18:46;29.40;99.90
39983;DHT22;25670;44.782;10.356;2022-08-03T09:23:45;29.70;99.90
39983;DHT22;25670;44.782;10.356;2022-08-03T09:26:22;29.90;99.90
39983;DHT22;25670;44.782;10.356;2022-08-03T09:29:07;30.00;99.90
39983;DHT22;25670;44.782;10.356;2022-08-03T09:34:09;30.20;99.90
39983;DHT22;25670;44.782;10.356;2022-08-03T09:36:37;30.50;99.90
39983;DHT22;25670;44.782;10.356;2022-08-03T09:39:08;30.10;99.90
39983;DHT22;25670;44.782;10.356;2022-08-03T09:41:40;30.10;99.90
39983;DHT22;25670;44.782;10.356;2022-08-03T09:44:07;30.10;99.90
39983;DHT22;25670;44.782;10.356;2022-08-03T09:49:15;30.00;99.90
39983;DHT22;25670;44.782;10.356;2022-08-03T09:51:41;30.10;99.90
39983;DHT22;25670;44.782;10.356;2022-08-03T09:54:08;30.10;99.90
39983;DHT22;25670;44.782;10.356;2022-08-03T09:56:42;30.20;99.90
39983;DHT22;25670;44.782;10.356;2022-08-03T09:59:11;30.30;99.90
39983;DHT22;25670;44.782;10.356;2022-08-03T10:01:37;30.30;99.90
39983;DHT22;25670;44.782;10.356;2022-08-03T10:04:12;30.40;99.90
39983;DHT22;25670;44.782;10.356;2022-08-03T10:06:39;30.40;99.90
39983;DHT22;25670;44.782;10.356;2022-08-03T10:09:10;30.60;99.90
39983;DHT22;25670;44.782;10.356;2022-08-03T10:11:38;30.80;99.90
39983;DHT22;25670;44.782;10.356;2022-08-03T10:14:06;30.70;99.90
39983;DHT22;25670;44.782;10.356;2022-08-03T10:16:34;30.90;99.90
39983;DHT22;25670;44.782;10.356;2022-08-03T10:19:05;30.80;99.90
39983;DHT22;25670;44.782;10.356;2022-08-03T10:21:34;31.00;99.90
39983;DHT22;25670;44.782;10.356;2022-08-03T10:24:03;31.90;99.90
39983;DHT22;25670;44.782;10.356;2022-08-03T10:26:34;31.70;99.50
39983;DHT22;25670;44.782;10.356;2022-08-03T10:29:04;31.50;99.10
39983;DHT22;25670;44.782;10.356;2022-08-03T10:31:40;31.70;99.10
39983;DHT22;25670;44.782;10.356;2022-08-03T10:34:22;31.70;99.40
39983;DHT22;25670;44.782;10.356;2022-08-03T10:36:50;31.80;99.80
39983;DHT22;25670;44.782;10.356;2022-08-03T10:39:21;31.90;99.70
39983;DHT22;25670;44.782;10.356;2022-08-03T10:41:48;32.00;99.20
39983;DHT22;25670;44.782;10.356;2022-08-03T10:44:19;31.90;98.40
39983;DHT22;25670;44.782;10.356;2022-08-03T10:46:47;31.70;98.50
39983;DHT22;25670;44.782;10.356;2022-08-03T10:49:16;31.60;98.10
39983;DHT22;25670;44.782;10.356;2022-08-03T10:51:47;31.50;98.20
39983;DHT22;25670;44.782;10.356;2022-08-03T10:54:39;31.40;98.50
39983;DHT22;25670;44.782;10.356;2022-08-03T10:57:48;31.80;98.10
39983;DHT22;25670;44.782;10.356;2022-08-03T11:00:25;31.90;97.90
39983;DHT22;25670;44.782;10.356;2022-08-03T11:03:11;32.10;98.00
39983;DHT22;25670;44.782;10.356;2022-08-03T11:05:42;31.50;97.70
39983;DHT22;25670;44.782;10.356;2022-08-03T11:08:25;32.30;97.80
39983;DHT22;25670;44.782;10.356;2022-08-03T11:11:00;32.40;97.20
39983;DHT22;25670;44.782;10.356;2022-08-03T11:13:29;32.60;97.20
39983;DHT22;25670;44.782;10.356;2022-08-03T11:15:59;32.70;97.00
39983;DHT22;25670;44.782;10.356;2022-08-03T11:18:25;32.90;96.80
39983;DHT22;25670;44.782;10.356;2022-08-03T11:20:53;33.20;97.00
39983;DHT22;25670;44.782;10.356;2022-08-03T11:28:39;33.40;96.30
39983;DHT22;25670;44.782;10.356;2022-08-03T11:34:06;33.90;94.80
39983;DHT22;25670;44.782;10.356;2022-08-03T11:39:40;34.00;94.70
39983;DHT22;25670;44.782;10.356;2022-08-03T11:44:54;34.00;93.30
39983;DHT22;25670;44.782;10.356;2022-08-03T11:47:21;34.10;93.40
39983;DHT22;25670;44.782;10.356;2022-08-03T11:49:49;34.30;92.60
39983;DHT22;25670;44.782;10.356;2022-08-03T11:52:17;34.30;92.40
39983;DHT22;25670;44.782;10.356;2022-08-03T11:54:45;34.60;91.90
39983;DHT22;25670;44.782;10.356;2022-08-03T11:57:31;34.80;91.30
39983;DHT22;25670;44.782;10.356;2022-08-03T11:59:57;34.70;91.50
39983;DHT22;25670;44.782;10.356;2022-08-03T12:02:25;34.50;91.80
39983;DHT22;25670;44.782;10.356;2022-08-03T12:07:18;34.60;91.30
39983;DHT22;25670;44.782;10.356;2022-08-03T12:10:07;34.60;91.30
39983;DHT22;25670;44.782;10.356;2022-08-03T12:12:34;34.90;90.90
39983;DHT22;25670;44.782;10.356;2022-08-03T12:15:02;35.00;91.40
39983;DHT22;25670;44.782;10.356;2022-08-03T12:20:03;35.10;89.80
39983;DHT22;25670;44.782;10.356;2022-08-03T12:22:39;35.20;90.00
39983;DHT22;25670;44.782;10.356;2022-08-03T12:25:06;35.20;90.30
39983;DHT22;25670;44.782;10.356;2022-08-03T12:27:33;35.40;90.20
39983;DHT22;25670;44.782;10.356;2022-08-03T12:30:00;35.50;90.00
39983;DHT22;25670;44.782;10.356;2022-08-03T12:32:28;35.50;88.80
39983;DHT22;25670;44.782;10.356;2022-08-03T12:34:56;35.50;88.80
39983;DHT22;25670;44.782;10.356;2022-08-03T12:37:31;35.70;89.00
39983;DHT22;25670;44.782;10.356;2022-08-03T12:39:59;35.70;87.20
39983;DHT22;25670;44.782;10.356;2022-08-03T12:42:34;35.60;86.90
39983;DHT22;25670;44.782;10.356;2022-08-03T12:45:20;35.50;86.30
39983;DHT22;25670;44.782;10.356;2022-08-03T12:47:58;35.30;86.90
39983;DHT22;25670;44.782;10.356;2022-08-03T12:50:33;35.40;86.40
39983;DHT22;25670;44.782;10.356;2022-08-03T12:53:05;35.70;85.00
39983;DHT22;25670;44.782;10.356;2022-08-03T12:55:32;35.80;85.30
39983;DHT22;25670;44.782;10.356;2022-08-03T12:58:06;36.10;86.00
39983;DHT22;25670;44.782;10.356;2022-08-03T13:00:36;36.30;85.00
39983;DHT22;25670;44.782;10.356;2022-08-03T13:03:04;36.40;85.80
39983;DHT22;25670;44.782;10.356;2022-08-03T13:05:38;36.40;84.80
39983;DHT22;25670;44.782;10.356;2022-08-03T13:08:20;36.70;84.40
39983;DHT22;25670;44.782;10.356;2022-08-03T13:10:47;36.50;83.40
39983;DHT22;25670;44.782;10.356;2022-08-03T13:13:14;36.30;84.30
39983;DHT22;25670;44.782;10.356;2022-08-03T13:15:49;36.40;85.30
39983;DHT22;25670;44.782;10.356;2022-08-03T13:18:23;36.80;83.90
39983;DHT22;25670;44.782;10.356;2022-08-03T13:20:50;37.00;83.90
39983;DHT22;25670;44.782;10.356;2022-08-03T13:23:16;36.90;84.80
39983;DHT22;25670;44.782;10.356;2022-08-03T13:25:46;36.30;84.20
39983;DHT22;25670;44.782;10.356;2022-08-03T13:28:12;36.40;84.90
39983;DHT22;25670;44.782;10.356;2022-08-03T13:30:39;36.30;82.70
39983;DHT22;25670;44.782;10.356;2022-08-03T13:33:07;36.90;82.20
39983;DHT22;25670;44.782;10.356;2022-08-03T13:35:36;36.60;82.00
39983;DHT22;25670;44.782;10.356;2022-08-03T13:40:32;37.00;81.60
39983;DHT22;25670;44.782;10.356;2022-08-03T13:42:59;37.20;79.50
39983;DHT22;25670;44.782;10.356;2022-08-03T13:47:52;37.10;79.50
39983;DHT22;25670;44.782;10.356;2022-08-03T13:50:19;38.10;81.70
39983;DHT22;25670;44.782;10.356;2022-08-03T13:52:48;38.00;81.30
39983;DHT22;25670;44.782;10.356;2022-08-03T13:55:14;37.60;81.20
39983;DHT22;25670;44.782;10.356;2022-08-03T13:57:40;37.10;81.50
39983;DHT22;25670;44.782;10.356;2022-08-03T14:00:07;37.10;81.00
39983;DHT22;25670;44.782;10.356;2022-08-03T14:02:34;37.30;82.10
39983;DHT22;25670;44.782;10.356;2022-08-03T14:05:00;37.50;80.00
39983;DHT22;25670;44.782;10.356;2022-08-03T14:07:27;37.30;79.10
39983;DHT22;25670;44.782;10.356;2022-08-03T14:09:53;37.20;77.60
39983;DHT22;25670;44.782;10.356;2022-08-03T14:12:21;37.20;78.50
39983;DHT22;25670;44.782;10.356;2022-08-03T14:14:47;37.20;77.00
39983;DHT22;25670;44.782;10.356;2022-08-03T14:17:13;37.30;78.90
39983;DHT22;25670;44.782;10.356;2022-08-03T14:19:39;37.40;79.30
39983;DHT22;25670;44.782;10.356;2022-08-03T14:22:06;37.60;78.60
39983;DHT22;25670;44.782;10.356;2022-08-03T14:24:32;37.80;77.30
39983;DHT22;25670;44.782;10.356;2022-08-03T14:26:58;37.80;77.80
39983;DHT22;25670;44.782;10.356;2022-08-03T14:29:24;38.10;78.10
39983;DHT22;25670;44.782;10.356;2022-08-03T14:31:51;38.20;77.70
39983;DHT22;25670;44.782;10.356;2022-08-03T14:34:17;38.20;77.40
39983;DHT22;25670;44.782;10.356;2022-08-03T14:36:44;38.30;78.20
39983;DHT22;25670;44.782;10.356;2022-08-03T14:39:12;38.70;76.20
39983;DHT22;25670;44.782;10.356;2022-08-03T14:41:39;38.60;76.60
39983;DHT22;25670;44.782;10.356;2022-08-03T14:44:05;38.90;77.20
39983;DHT22;25670;44.782;10.356;2022-08-03T14:46:31;38.50;77.30
39983;DHT22;25670;44.782;10.356;2022-08-03T14:48:58;39.00;77.00
39983;DHT22;25670;44.782;10.356;2022-08-03T14:51:24;38.90;77.60
39983;DHT22;25670;44.782;10.356;2022-08-03T14:53:51;39.20;77.10
39983;DHT22;25670;44.782;10.356;2022-08-03T14:56:17;38.40;77.40
39983;DHT22;25670;44.782;10.356;2022-08-03T14:58:43;38.00;78.00
39983;DHT22;25670;44.782;10.356;2022-08-03T15:01:10;36.70;76.80
39983;DHT22;25670;44.782;10.356;2022-08-03T15:03:36;38.00;78.50
39983;DHT22;25670;44.782;10.356;2022-08-03T15:06:02;38.50;78.90
39983;DHT22;25670;44.782;10.356;2022-08-03T15:08:29;38.50;78.80
39983;DHT22;25670;44.782;10.356;2022-08-03T15:10:55;38.90;77.90
39983;DHT22;25670;44.782;10.356;2022-08-03T15:13:21;39.20;77.30
39983;DHT22;25670;44.782;10.356;2022-08-03T15:15:48;39.30;76.30
39983;DHT22;25670;44.782;10.356;2022-08-03T15:18:14;39.00;76.30
39983;DHT22;25670;44.782;10.356;2022-08-03T15:20:41;39.10;76.60
39983;DHT22;25670;44.782;10.356;2022-08-03T15:23:07;38.90;75.60
39983;DHT22;25670;44.782;10.356;2022-08-03T15:25:33;38.70;75.50
39983;DHT22;25670;44.782;10.356;2022-08-03T15:27:59;38.90;76.30
39983;DHT22;25670;44.782;10.356;2022-08-03T15:30:26;39.10;76.60
39983;DHT22;25670;44.782;10.356;2022-08-03T15:32:55;39.50;76.60
39983;DHT22;25670;44.782;10.356;2022-08-03T15:35:21;39.80;75.80
39983;DHT22;25670;44.782;10.356;2022-08-03T15:37:48;40.10;75.00
39983;DHT22;25670;44.782;10.356;2022-08-03T15:40:14;40.40;74.20
39983;DHT22;25670;44.782;10.356;2022-08-03T15:42:40;40.30;73.80
39983;DHT22;25670;44.782;10.356;2022-08-03T15:45:07;40.10;73.10
39983;DHT22;25670;44.782;10.356;2022-08-03T15:47:34;39.10;72.80
39983;DHT22;25670;44.782;10.356;2022-08-03T15:50:00;39.60;73.70
39983;DHT22;25670;44.782;10.356;2022-08-03T15:52:26;39.80;75.00
39983;DHT22;25670;44.782;10.356;2022-08-03T15:54:52;40.00;74.50
39983;DHT22;25670;44.782;10.356;2022-08-03T15:57:19;40.10;74.90
39983;DHT22;25670;44.782;10.356;2022-08-03T15:59:45;40.20;73.70
39983;DHT22;25670;44.782;10.356;2022-08-03T16:02:12;40.80;72.90
39983;DHT22;25670;44.782;10.356;2022-08-03T16:04:39;40.50;73.20
39983;DHT22;25670;44.782;10.356;2022-08-03T16:07:05;40.50;72.50
39983;DHT22;25670;44.782;10.356;2022-08-03T16:09:31;40.60;72.70
39983;DHT22;25670;44.782;10.356;2022-08-03T16:11:58;40.40;72.00
39983;DHT22;25670;44.782;10.356;2022-08-03T16:14:24;40.30;72.00
39983;DHT22;25670;44.782;10.356;2022-08-03T16:16:50;40.30;72.10
39983;DHT22;25670;44.782;10.356;2022-08-03T16:19:20;40.20;71.90
39983;DHT22;25670;44.782;10.356;2022-08-03T16:21:46;40.30;72.80
39983;DHT22;25670;44.782;10.356;2022-08-03T16:24:12;41.30;73.90
39983;DHT22;25670;44.782;10.356;2022-08-03T16:26:38;40.90;72.10
39983;DHT22;25670;44.782;10.356;2022-08-03T16:29:05;41.30;72.10
39983;DHT22;25670;44.782;10.356;2022-08-03T16:31:31;41.30;71.10
39983;DHT22;25670;44.782;10.356;2022-08-03T16:33:57;41.00;71.10
39983;DHT22;25670;44.782;10.356;2022-08-03T16:36:23;41.00;71.10
39983;DHT22;25670;44.782;10.356;2022-08-03T16:38:50;41.30;72.80
39983;DHT22;25670;44.782;10.356;2022-08-03T16:41:16;41.30;71.20
39983;DHT22;25670;44.782;10.356;2022-08-03T16:43:42;41.60;71.20
39983;DHT22;25670;44.782;10.356;2022-08-03T16:46:08;41.40;71.80
39983;DHT22;25670;44.782;10.356;2022-08-03T16:48:35;41.50;71.90
39983;DHT22;25670;44.782;10.356;2022-08-03T16:51:01;41.90;71.70
39983;DHT22;25670;44.782;10.356;2022-08-03T16:53:28;42.40;71.50
39983;DHT22;25670;44.782;10.356;2022-08-03T16:55:54;42.30;70.70
39983;DHT22;25670;44.782;10.356;2022-08-03T16:58:21;42.70;71.00
39983;DHT22;25670;44.782;10.356;2022-08-03T17:00:47;42.80;70.00
39983;DHT22;25670;44.782;10.356;2022-08-03T17:03:14;42.60;69.20
39983;DHT22;25670;44.782;10.356;2022-08-03T17:05:44;42.80;68.70
39983;DHT22;25670;44.782;10.356;2022-08-03T17:08:10;43.10;67.40
39983;DHT22;25670;44.782;10.356;2022-08-03T17:10:37;43.10;65.00
39983;DHT22;25670;44.782;10.356;2022-08-03T17:13:03;43.30;65.60
39983;DHT22;25670;44.782;10.356;2022-08-03T17:15:30;43.60;65.90
39983;DHT22;25670;44.782;10.356;2022-08-03T17:18:03;43.70;66.40
39983;DHT22;25670;44.782;10.356;2022-08-03T17:20:33;43.90;66.70
39983;DHT22;25670;44.782;10.356;2022-08-03T17:23:08;44.30;66.60
39983;DHT22;25670;44.782;10.356;2022-08-03T17:25:42;44.20;66.00
39983;DHT22;25670;44.782;10.356;2022-08-03T17:28:08;44.10;66.20
39983;DHT22;25670;44.782;10.356;2022-08-03T17:30:37;43.70;65.80